sensor_id;sensor_type;location;lat;lon;timestamp;pressure;altitude;pressure_sealevel;temperature;humidity
75146;BME280;63641;46.526;24.612;2023-05-08T00:00:09;97411.25;;;13.07;75.24
75146;BME280;63641;46.526;24.612;2023-05-08T00:02:36;97408.53;;;13.07;75.27
75146;BME280;63641;46.526;24.612;2023-05-08T00:05:03;97396.41;;;12.99;75.20
75146;BME280;63641;46.526;24.612;2023-05-08T00:07:30;97395.59;;;12.99;75.02
75146;BME280;63641;46.526;24.612;2023-05-08T00:09:57;97395.31;;;13.00;74.81
75146;BME280;63641;46.526;24.612;2023-05-08T00:12:24;97395.47;;;12.90;74.95
75146;BME280;63641;46.526;24.612;2023-05-08T00:14:50;97403.31;;;12.92;75.17
75146;BME280;63641;46.526;24.612;2023-05-08T00:17:17;97406.63;;;12.89;75.21
75146;BME280;63641;46.526;24.612;2023-05-08T00:19:44;97414.25;;;12.87;75.17
75146;BME280;63641;46.526;24.612;2023-05-08T00:22:11;97409.50;;;12.78;75.23
75146;BME280;63641;46.526;24.612;2023-05-08T00:24:37;97400.00;;;12.76;75.25
75146;BME280;63641;46.526;24.612;2023-05-08T00:27:04;97411.41;;;12.78;75.32
75146;BME280;63641;46.526;24.612;2023-05-08T00:29:31;97411.69;;;12.76;75.35
75146;BME280;63641;46.526;24.612;2023-05-08T00:31:58;97408.47;;;12.74;75.26
75146;BME280;63641;46.526;24.612;2023-05-08T00:34:25;97416.09;;;12.72;75.25
75146;BME280;63641;46.526;24.612;2023-05-08T00:36:51;97408.25;;;12.71;75.19
75146;BME280;63641;46.526;24.612;2023-05-08T00:39:18;97410.44;;;12.69;75.17
75146;BME280;63641;46.526;24.612;2023-05-08T00:41:46;97410.19;;;12.65;75.10
75146;BME280;63641;46.526;24.612;2023-05-08T00:44:12;97404.31;;;12.58;75.14
75146;BME280;63641;46.526;24.612;2023-05-08T00:46:40;97392.66;;;12.57;75.13
75146;BME280;63641;46.526;24.612;2023-05-08T00:49:07;97391.63;;;12.53;75.32
75146;BME280;63641;46.526;24.612;2023-05-08T00:51:40;97383.63;;;12.43;75.35
75146;BME280;63641;46.526;24.612;2023-05-08T00:54:09;97399.63;;;12.45;75.44
75146;BME280;63641;46.526;24.612;2023-05-08T00:56:37;97396.16;;;12.39;75.45
75146;BME280;63641;46.526;24.612;2023-05-08T00:59:08;97403.44;;;12.44;75.44
75146;BME280;63641;46.526;24.612;2023-05-08T01:01:37;97408.13;;;12.38;75.10
75146;BME280;63641;46.526;24.612;2023-05-08T01:04:05;97385.22;;;12.25;75.49
75146;BME280;63641;46.526;24.612;2023-05-08T01:06:32;97408.16;;;12.33;75.39
75146;BME280;63641;46.526;24.612;2023-05-08T01:09:02;97411.50;;;12.30;75.30
75146;BME280;63641;46.526;24.612;2023-05-08T01:11:55;97405.00;;;12.26;75.40
75146;BME280;63641;46.526;24.612;2023-05-08T01:28:29;97417.44;;;12.08;75.74
75146;BME280;63641;46.526;24.612;2023-05-08T01:31:24;97409.88;;;12.05;75.62
75146;BME280;63641;46.526;24.612;2023-05-08T01:34:04;97418.06;;;12.00;75.50
75146;BME280;63641;46.526;24.612;2023-05-08T01:36:51;97408.59;;;11.97;75.59
75146;BME280;63641;46.526;24.612;2023-05-08T01:42:19;97391.31;;;11.93;75.64
75146;BME280;63641;46.526;24.612;2023-05-08T01:45:14;97397.53;;;11.94;75.64
75146;BME280;63641;46.526;24.612;2023-05-08T01:47:43;97386.16;;;11.92;75.72
75146;BME280;63641;46.526;24.612;2023-05-08T01:50:17;97391.56;;;11.92;75.70
75146;BME280;63641;46.526;24.612;2023-05-08T01:52:50;97398.66;;;11.88;75.71
75146;BME280;63641;46.526;24.612;2023-05-08T01:55:38;97413.84;;;11.89;75.90
75146;BME280;63641;46.526;24.612;2023-05-08T01:58:08;97399.25;;;11.84;75.66
75146;BME280;63641;46.526;24.612;2023-05-08T02:00:38;97396.53;;;11.84;75.86
75146;BME280;63641;46.526;24.612;2023-05-08T02:03:07;97393.28;;;11.82;75.90
75146;BME280;63641;46.526;24.612;2023-05-08T02:05:38;97402.50;;;11.81;76.08
75146;BME280;63641;46.526;24.612;2023-05-08T02:08:08;97409.31;;;11.79;76.01
75146;BME280;63641;46.526;24.612;2023-05-08T02:10:36;97391.78;;;11.71;75.93
75146;BME280;63641;46.526;24.612;2023-05-08T02:13:06;97404.47;;;11.76;75.91
75146;BME280;63641;46.526;24.612;2023-05-08T02:15:35;97402.84;;;11.75;76.09
75146;BME280;63641;46.526;24.612;2023-05-08T02:18:04;97399.31;;;11.74;76.10
75146;BME280;63641;46.526;24.612;2023-05-08T02:20:32;97392.56;;;11.72;75.79
75146;BME280;63641;46.526;24.612;2023-05-08T02:22:59;97383.66;;;11.66;76.16
75146;BME280;63641;46.526;24.612;2023-05-08T02:25:28;97385.50;;;11.71;76.21
75146;BME280;63641;46.526;24.612;2023-05-08T02:27:57;97379.34;;;11.65;76.37
75146;BME280;63641;46.526;24.612;2023-05-08T02:30:24;97382.53;;;11.72;76.23
75146;BME280;63641;46.526;24.612;2023-05-08T02:32:52;97379.81;;;11.72;76.14
75146;BME280;63641;46.526;24.612;2023-05-08T02:35:20;97382.53;;;11.72;76.15
75146;BME280;63641;46.526;24.612;2023-05-08T02:37:53;97382.53;;;11.72;76.26
75146;BME280;63641;46.526;24.612;2023-05-08T02:40:22;97393.88;;;11.74;76.41
75146;BME280;63641;46.526;24.612;2023-05-08T02:42:50;97384.16;;;11.73;76.43
75146;BME280;63641;46.526;24.612;2023-05-08T02:45:16;97385.50;;;11.71;76.21
75146;BME280;63641;46.526;24.612;2023-05-08T02:50:20;97394.00;;;11.64;76.46
75146;BME280;63641;46.526;24.612;2023-05-08T02:52:53;97397.53;;;11.65;76.59
75146;BME280;63641;46.526;24.612;2023-05-08T02:55:43;97401.59;;;11.62;76.66
75146;BME280;63641;46.526;24.612;2023-05-08T03:01:44;97407.88;;;11.57;77.16
75146;BME280;63641;46.526;24.612;2023-05-08T03:04:30;97403.91;;;11.50;77.48
75146;BME280;63641;46.526;24.612;2023-05-08T03:06:58;97393.31;;;11.48;77.83
75146;BME280;63641;46.526;24.612;2023-05-08T03:09:31;97388.44;;;11.50;77.85
75146;BME280;63641;46.526;24.612;2023-05-08T03:12:06;97388.44;;;11.50;77.97
75146;BME280;63641;46.526;24.612;2023-05-08T03:14:39;97387.31;;;11.56;78.04
75146;BME280;63641;46.526;24.612;2023-05-08T03:17:12;97389.97;;;11.61;77.83
75146;BME280;63641;46.526;24.612;2023-05-08T03:19:43;97376.06;;;11.68;77.92
75146;BME280;63641;46.526;24.612;2023-05-08T03:22:14;97349.53;;;11.65;77.90
75146;BME280;63641;46.526;24.612;2023-05-08T03:24:43;97352.41;;;11.74;77.80
75146;BME280;63641;46.526;24.612;2023-05-08T03:27:11;97348.91;;;11.73;77.82
75146;BME280;63641;46.526;24.612;2023-05-08T03:29:40;97355.91;;;11.79;77.88
75146;BME280;63641;46.526;24.612;2023-05-08T03:32:10;97352.88;;;11.81;78.01
75146;BME280;63641;46.526;24.612;2023-05-08T03:34:38;97354.75;;;11.85;77.76
75146;BME280;63641;46.526;24.612;2023-05-08T03:37:06;97368.59;;;11.84;77.74
75146;BME280;63641;46.526;24.612;2023-05-08T03:39:33;97364.06;;;11.74;77.67
75146;BME280;63641;46.526;24.612;2023-05-08T03:42:00;97376.47;;;11.80;77.97
75146;BME280;63641;46.526;24.612;2023-05-08T03:44:28;97375.38;;;11.81;77.89
75146;BME280;63641;46.526;24.612;2023-05-08T03:46:55;97367.00;;;11.78;77.93
75146;BME280;63641;46.526;24.612;2023-05-08T03:49:24;97378.66;;;11.83;77.93
75146;BME280;63641;46.526;24.612;2023-05-08T03:51:55;97379.16;;;11.85;77.88
75146;BME280;63641;46.526;24.612;2023-05-08T03:54:21;97377.50;;;11.90;77.86
75146;BME280;63641;46.526;24.612;2023-05-08T03:56:53;97378.09;;;11.87;77.87
75146;BME280;63641;46.526;24.612;2023-05-08T03:59:28;97385.88;;;11.93;77.39
75146;BME280;63641;46.526;24.612;2023-05-08T04:05:03;97385.00;;;11.98;77.73
75146;BME280;63641;46.526;24.612;2023-05-08T04:07:57;97392.56;;;12.01;77.64
75146;BME280;63641;46.526;24.612;2023-05-08T04:10:31;97392.81;;;12.04;77.40
75146;BME280;63641;46.526;24.612;2023-05-08T04:13:07;97395.75;;;12.08;77.48
75146;BME280;63641;46.526;24.612;2023-05-08T04:16:04;97393.53;;;12.10;77.38
75146;BME280;63641;46.526;24.612;2023-05-08T04:18:35;97386.66;;;12.18;77.52
75146;BME280;63641;46.526;24.612;2023-05-08T04:21:07;97385.59;;;12.19;77.33
75146;BME280;63641;46.526;24.612;2023-05-08T04:23:36;97391.66;;;12.29;77.38
75146;BME280;63641;46.526;24.612;2023-05-08T04:26:04;97381.91;;;12.28;77.24
75146;BME280;63641;46.526;24.612;2023-05-08T04:28:33;97395.94;;;12.36;77.29
75146;BME280;63641;46.526;24.612;2023-05-08T04:31:01;97401.28;;;12.41;77.20
75146;BME280;63641;46.526;24.612;2023-05-08T04:33:29;97406.94;;;12.44;77.25
75146;BME280;63641;46.526;24.612;2023-05-08T04:35:58;97408.81;;;12.49;77.36
75146;BME280;63641;46.526;24.612;2023-05-08T04:38:26;97401.38;;;12.54;77.26
75146;BME280;63641;46.526;24.612;2023-05-08T04:40:53;97403.22;;;12.59;77.25
75146;BME280;63641;46.526;24.612;2023-05-08T04:43:20;97399.94;;;12.62;77.12
75146;BME280;63641;46.526;24.612;2023-05-08T04:45:47;97408.03;;;12.67;77.15
75146;BME280;63641;46.526;24.612;2023-05-08T04:48:14;97397.16;;;12.67;77.22
75146;BME280;63641;46.526;24.612;2023-05-08T04:50:40;97414.13;;;12.78;77.25
75146;BME280;63641;46.526;24.612;2023-05-08T04:53:07;97407.28;;;12.80;77.07
75146;BME280;63641;46.526;24.612;2023-05-08T04:55:34;97409.94;;;12.86;77.07
75146;BME280;63641;46.526;24.612;2023-05-08T04:58:01;97408.25;;;12.90;76.94
75146;BME280;63641;46.526;24.612;2023-05-08T05:00:27;97410.88;;;12.95;76.90
75146;BME280;63641;46.526;24.612;2023-05-08T05:02:54;97408.59;;;13.02;76.62
75146;BME280;63641;46.526;24.612;2023-05-08T05:05:21;97414.47;;;13.09;76.56
75146;BME280;63641;46.526;24.612;2023-05-08T05:07:47;97413.28;;;13.15;76.28
75146;BME280;63641;46.526;24.612;2023-05-08T05:10:14;97411.00;;;13.22;76.17
75146;BME280;63641;46.526;24.612;2023-05-08T05:12:41;97412.56;;;13.28;75.92
75146;BME280;63641;46.526;24.612;2023-05-08T05:15:09;97411.38;;;13.35;75.66
75146;BME280;63641;46.526;24.612;2023-05-08T05:17:36;97407.16;;;13.42;75.70
75146;BME280;63641;46.526;24.612;2023-05-08T05:20:03;97419.88;;;13.47;75.63
75146;BME280;63641;46.526;24.612;2023-05-08T05:22:31;97427.44;;;13.50;75.60
75146;BME280;63641;46.526;24.612;2023-05-08T05:24:58;97427.94;;;13.52;75.28
75146;BME280;63641;46.526;24.612;2023-05-08T05:27:25;97433.28;;;13.57;75.51
75146;BME280;63641;46.526;24.612;2023-05-08T05:29:52;97426.75;;;13.58;75.41
75146;BME280;63641;46.526;24.612;2023-05-08T05:32:19;97425.88;;;13.63;75.40
75146;BME280;63641;46.526;24.612;2023-05-08T05:34:46;97424.16;;;13.67;75.22
75146;BME280;63641;46.526;24.612;2023-05-08T05:37:12;97421.94;;;13.69;75.26
75146;BME280;63641;46.526;24.612;2023-05-08T05:39:39;97427.78;;;13.76;75.34
75146;BME280;63641;46.526;24.612;2023-05-08T05:42:06;97425.50;;;13.83;74.91
75146;BME280;63641;46.526;24.612;2023-05-08T05:44:32;97422.38;;;13.90;74.97
75146;BME280;63641;46.526;24.612;2023-05-08T05:46:59;97424.41;;;13.98;74.78
75146;BME280;63641;46.526;24.612;2023-05-08T05:49:26;97416.16;;;14.03;74.56
75146;BME280;63641;46.526;24.612;2023-05-08T05:51:53;97426.53;;;14.15;74.39
75146;BME280;63641;46.526;24.612;2023-05-08T05:54:19;97426.16;;;14.21;74.16
75146;BME280;63641;46.526;24.612;2023-05-08T05:56:46;97431.50;;;14.26;74.03
75146;BME280;63641;46.526;24.612;2023-05-08T05:59:13;97424.31;;;14.31;73.99
75146;BME280;63641;46.526;24.612;2023-05-08T06:01:40;97418.88;;;14.31;73.94
75146;BME280;63641;46.526;24.612;2023-05-08T06:04:07;97425.84;;;14.37;73.77
75146;BME280;63641;46.526;24.612;2023-05-08T06:06:34;97429.84;;;14.39;73.65
75146;BME280;63641;46.526;24.612;2023-05-08T06:09:01;97416.34;;;14.34;73.75
75146;BME280;63641;46.526;24.612;2023-05-08T06:11:27;97423.53;;;14.44;73.59
75146;BME280;63641;46.526;24.612;2023-05-08T06:13:54;97425.31;;;14.48;73.54
75146;BME280;63641;46.526;24.612;2023-05-08T06:16:21;97417.38;;;14.52;73.54
75146;BME280;63641;46.526;24.612;2023-05-08T06:18:50;97425.16;;;14.59;73.32
75146;BME280;63641;46.526;24.612;2023-05-08T06:21:18;97425.53;;;14.66;73.06
75146;BME280;63641;46.526;24.612;2023-05-08T06:23:44;97413.22;;;14.68;73.04
75146;BME280;63641;46.526;24.612;2023-05-08T06:26:11;97415.84;;;14.73;72.87
75146;BME280;63641;46.526;24.612;2023-05-08T06:28:38;97423.97;;;14.87;72.24
75146;BME280;63641;46.526;24.612;2023-05-08T06:31:04;97419.94;;;14.98;72.13
75146;BME280;63641;46.526;24.612;2023-05-08T06:33:31;97418.69;;;15.05;72.12
75146;BME280;63641;46.526;24.612;2023-05-08T06:35:59;97414.59;;;15.16;71.76
75146;BME280;63641;46.526;24.612;2023-05-08T06:38:25;97419.81;;;15.26;71.72
75146;BME280;63641;46.526;24.612;2023-05-08T06:40:52;97425.13;;;15.31;71.58
75146;BME280;63641;46.526;24.612;2023-05-08T06:43:19;97426.13;;;15.35;71.74
75146;BME280;63641;46.526;24.612;2023-05-08T06:45:50;97422.13;;;15.33;71.50
75146;BME280;63641;46.526;24.612;2023-05-08T06:48:18;97422.78;;;15.38;71.44
75146;BME280;63641;46.526;24.612;2023-05-08T06:50:46;97434.69;;;15.42;71.38
75146;BME280;63641;46.526;24.612;2023-05-08T06:53:13;97426.03;;;15.40;70.86
75146;BME280;63641;46.526;24.612;2023-05-08T06:55:42;97435.69;;;15.46;70.96
75146;BME280;63641;46.526;24.612;2023-05-08T06:58:10;97438.09;;;15.48;70.73
75146;BME280;63641;46.526;24.612;2023-05-08T07:00:37;97434.25;;;15.49;70.60
75146;BME280;63641;46.526;24.612;2023-05-08T07:03:03;97428.31;;;15.47;70.44
75146;BME280;63641;46.526;24.612;2023-05-08T07:05:30;97433.50;;;15.57;70.23
75146;BME280;63641;46.526;24.612;2023-05-08T07:07:57;97439.66;;;15.63;70.19
75146;BME280;63641;46.526;24.612;2023-05-08T07:10:23;97450.16;;;15.69;70.15
75146;BME280;63641;46.526;24.612;2023-05-08T07:12:50;97445.81;;;15.68;69.97
75146;BME280;63641;46.526;24.612;2023-05-08T07:15:17;97445.63;;;15.65;69.95
75146;BME280;63641;46.526;24.612;2023-05-08T07:17:51;97442.53;;;15.58;70.05
75146;BME280;63641;46.526;24.612;2023-05-08T07:20:18;97441.69;;;15.57;70.17
75146;BME280;63641;46.526;24.612;2023-05-08T07:22:45;97454.72;;;15.60;70.08
75146;BME280;63641;46.526;24.612;2023-05-08T07:25:12;97449.38;;;15.55;69.82
75146;BME280;63641;46.526;24.612;2023-05-08T07:27:39;97455.88;;;15.45;69.93
75146;BME280;63641;46.526;24.612;2023-05-08T07:30:07;97456.13;;;15.35;70.01
75146;BME280;63641;46.526;24.612;2023-05-08T07:32:34;97458.78;;;15.27;70.14
75146;BME280;63641;46.526;24.612;2023-05-08T07:35:01;97447.78;;;15.32;70.22
75146;BME280;63641;46.526;24.612;2023-05-08T07:37:28;97456.88;;;15.50;69.79
75146;BME280;63641;46.526;24.612;2023-05-08T07:39:55;97453.38;;;15.72;68.82
75146;BME280;63641;46.526;24.612;2023-05-08T07:42:22;97449.75;;;15.85;68.38
75146;BME280;63641;46.526;24.612;2023-05-08T07:44:48;97442.56;;;15.89;68.31
75146;BME280;63641;46.526;24.612;2023-05-08T07:47:20;97441.94;;;15.92;68.33
75146;BME280;63641;46.526;24.612;2023-05-08T07:49:48;97443.72;;;15.97;68.30
75146;BME280;63641;46.526;24.612;2023-05-08T07:52:14;97431.41;;;16.08;67.98
75146;BME280;63641;46.526;24.612;2023-05-08T07:54:41;97439.00;;;16.19;67.51
75146;BME280;63641;46.526;24.612;2023-05-08T07:57:09;97441.78;;;16.28;67.60
75146;BME280;63641;46.526;24.612;2023-05-08T07:59:36;97443.91;;;16.40;67.81
75146;BME280;63641;46.526;24.612;2023-05-08T08:02:03;97432.56;;;16.55;67.08
75146;BME280;63641;46.526;24.612;2023-05-08T08:04:30;97436.78;;;16.70;66.77
75146;BME280;63641;46.526;24.612;2023-05-08T08:06:57;97448.50;;;16.71;66.04
75146;BME280;63641;46.526;24.612;2023-05-08T08:09:23;97444.50;;;16.68;65.93
75146;BME280;63641;46.526;24.612;2023-05-08T08:11:51;97437.81;;;16.83;65.65
75146;BME280;63641;46.526;24.612;2023-05-08T08:14:18;97440.72;;;17.12;64.94
75146;BME280;63641;46.526;24.612;2023-05-08T08:16:44;97440.25;;;17.28;64.52
75146;BME280;63641;46.526;24.612;2023-05-08T08:19:11;97438.00;;;17.38;63.88
75146;BME280;63641;46.526;24.612;2023-05-08T08:21:42;97437.81;;;17.44;63.07
75146;BME280;63641;46.526;24.612;2023-05-08T08:24:09;97431.56;;;17.43;62.67
75146;BME280;63641;46.526;24.612;2023-05-08T08:26:36;97432.19;;;17.49;62.62
75146;BME280;63641;46.526;24.612;2023-05-08T08:29:02;97443.25;;;17.70;62.39
75146;BME280;63641;46.526;24.612;2023-05-08T08:31:29;97449.06;;;17.94;62.50
75146;BME280;63641;46.526;24.612;2023-05-08T08:33:57;97442.41;;;18.13;61.22
75146;BME280;63641;46.526;24.612;2023-05-08T08:36:23;97431.59;;;18.07;60.90
75146;BME280;63641;46.526;24.612;2023-05-08T08:38:50;97440.84;;;17.85;60.69
75146;BME280;63641;46.526;24.612;2023-05-08T08:41:17;97437.47;;;17.62;60.45
75146;BME280;63641;46.526;24.612;2023-05-08T08:43:44;97438.47;;;17.58;60.39
75146;BME280;63641;46.526;24.612;2023-05-08T08:46:12;97432.50;;;17.65;60.01
75146;BME280;63641;46.526;24.612;2023-05-08T08:48:45;97436.34;;;17.81;59.62
75146;BME280;63641;46.526;24.612;2023-05-08T08:51:27;97436.00;;;17.91;59.11
75146;BME280;63641;46.526;24.612;2023-05-08T08:54:11;97426.97;;;17.99;58.94
75146;BME280;63641;46.526;24.612;2023-05-08T08:56:40;97433.69;;;18.10;58.69
75146;BME280;63641;46.526;24.612;2023-05-08T08:59:14;97418.03;;;18.20;58.72
75146;BME280;63641;46.526;24.612;2023-05-08T09:01:44;97417.81;;;18.33;58.11
75146;BME280;63641;46.526;24.612;2023-05-08T09:04:14;97428.09;;;18.37;57.70
75146;BME280;63641;46.526;24.612;2023-05-08T09:06:41;97424.19;;;18.46;57.35
75146;BME280;63641;46.526;24.612;2023-05-08T09:09:11;97412.88;;;18.56;57.17
75146;BME280;63641;46.526;24.612;2023-05-08T09:11:39;97420.75;;;18.58;56.97
75146;BME280;63641;46.526;24.612;2023-05-08T09:14:06;97417.84;;;18.63;56.77
75146;BME280;63641;46.526;24.612;2023-05-08T09:16:34;97400.97;;;18.52;56.66
75146;BME280;63641;46.526;24.612;2023-05-08T09:19:01;97414.56;;;18.70;56.46
75146;BME280;63641;46.526;24.612;2023-05-08T09:21:30;97424.97;;;18.85;56.11
75146;BME280;63641;46.526;24.612;2023-05-08T09:24:02;97421.56;;;18.88;56.02
75146;BME280;63641;46.526;24.612;2023-05-08T09:26:35;97419.88;;;18.96;56.40
75146;BME280;63641;46.526;24.612;2023-05-08T09:31:40;97415.28;;;19.09;56.04
75146;BME280;63641;46.526;24.612;2023-05-08T09:34:20;97415.88;;;19.14;56.21
75146;BME280;63641;46.526;24.612;2023-05-08T09:36:49;97408.97;;;19.29;56.20
75146;BME280;63641;46.526;24.612;2023-05-08T09:39:21;97413.66;;;19.49;55.84
75146;BME280;63641;46.526;24.612;2023-05-08T09:41:59;97418.66;;;19.47;54.43
75146;BME280;63641;46.526;24.612;2023-05-08T09:44:26;97414.47;;;19.29;54.42
75146;BME280;63641;46.526;24.612;2023-05-08T09:47:28;97405.75;;;19.15;54.12
75146;BME280;63641;46.526;24.612;2023-05-08T09:49:59;97400.16;;;19.02;54.04
75146;BME280;63641;46.526;24.612;2023-05-08T09:52:27;97403.50;;;18.87;53.83
75146;BME280;63641;46.526;24.612;2023-05-08T09:55:09;97394.00;;;18.85;53.49
75146;BME280;63641;46.526;24.612;2023-05-08T09:57:38;97389.94;;;18.91;53.28
75146;BME280;63641;46.526;24.612;2023-05-08T10:00:12;97385.19;;;19.00;52.77
75146;BME280;63641;46.526;24.612;2023-05-08T10:02:41;97387.22;;;19.12;52.04
75146;BME280;63641;46.526;24.612;2023-05-08T10:07:50;97383.59;;;19.20;50.72
75146;BME280;63641;46.526;24.612;2023-05-08T10:10:22;97383.59;;;19.20;50.64
75146;BME280;63641;46.526;24.612;2023-05-08T10:12:53;97382.91;;;19.23;50.72
75146;BME280;63641;46.526;24.612;2023-05-08T10:15:41;97376.88;;;19.29;49.97
75146;BME280;63641;46.526;24.612;2023-05-08T10:18:08;97387.56;;;19.43;50.15
75146;BME280;63641;46.526;24.612;2023-05-08T10:20:42;97376.75;;;19.59;49.64
75146;BME280;63641;46.526;24.612;2023-05-08T10:23:14;97378.28;;;19.69;49.03
75146;BME280;63641;46.526;24.612;2023-05-08T10:25:46;97387.13;;;19.74;49.09
75146;BME280;63641;46.526;24.612;2023-05-08T10:28:32;97373.41;;;19.74;49.15
75146;BME280;63641;46.526;24.612;2023-05-08T10:31:02;97368.59;;;19.84;49.39
75146;BME280;63641;46.526;24.612;2023-05-08T10:33:33;97370.44;;;19.92;49.31
75146;BME280;63641;46.526;24.612;2023-05-08T10:36:00;97376.41;;;20.06;48.84
75146;BME280;63641;46.526;24.612;2023-05-08T10:38:27;97374.25;;;20.24;48.76
75146;BME280;63641;46.526;24.612;2023-05-08T10:40:59;97381.34;;;20.25;49.00
75146;BME280;63641;46.526;24.612;2023-05-08T10:43:28;97376.53;;;20.10;48.89
75146;BME280;63641;46.526;24.612;2023-05-08T10:45:56;97377.13;;;20.03;48.82
75146;BME280;63641;46.526;24.612;2023-05-08T10:48:56;97377.91;;;20.03;48.41
75146;BME280;63641;46.526;24.612;2023-05-08T10:51:36;97373.78;;;20.10;48.31
75146;BME280;63641;46.526;24.612;2023-05-08T10:54:20;97369.00;;;20.19;48.02
75146;BME280;63641;46.526;24.612;2023-05-08T10:57:11;97374.47;;;20.31;47.44
75146;BME280;63641;46.526;24.612;2023-05-08T10:59:44;97378.50;;;20.34;47.14
75146;BME280;63641;46.526;24.612;2023-05-08T11:02:12;97379.31;;;20.22;46.92
75146;BME280;63641;46.526;24.612;2023-05-08T11:04:39;97377.91;;;20.03;46.82
75146;BME280;63641;46.526;24.612;2023-05-08T11:07:06;97386.34;;;19.98;47.07
75146;BME280;63641;46.526;24.612;2023-05-08T11:12:09;97370.47;;;20.04;46.35
75146;BME280;63641;46.526;24.612;2023-05-08T11:14:43;97369.00;;;20.19;46.25
75146;BME280;63641;46.526;24.612;2023-05-08T11:17:24;97378.81;;;20.32;45.77
75146;BME280;63641;46.526;24.612;2023-05-08T11:19:59;97375.63;;;20.42;45.50
75146;BME280;63641;46.526;24.612;2023-05-08T11:24:59;97381.13;;;20.30;44.87
75146;BME280;63641;46.526;24.612;2023-05-08T11:27:37;97378.28;;;20.26;44.93
75146;BME280;63641;46.526;24.612;2023-05-08T11:30:36;97382.50;;;20.24;44.97
75146;BME280;63641;46.526;24.612;2023-05-08T11:35:40;97369.66;;;20.28;45.30
75146;BME280;63641;46.526;24.612;2023-05-08T11:38:31;97369.47;;;20.33;44.36
75146;BME280;63641;46.526;24.612;2023-05-08T11:41:21;97375.16;;;20.16;44.06
75146;BME280;63641;46.526;24.612;2023-05-08T11:46:53;97368.22;;;19.73;44.04
75146;BME280;63641;46.526;24.612;2023-05-08T11:49:23;97372.34;;;19.67;43.71
75146;BME280;63641;46.526;24.612;2023-05-08T11:51:57;97370.94;;;19.61;43.91
75146;BME280;63641;46.526;24.612;2023-05-08T11:54:24;97378.28;;;19.69;44.14
75146;BME280;63641;46.526;24.612;2023-05-08T11:56:56;97384.16;;;19.79;43.76
75146;BME280;63641;46.526;24.612;2023-05-08T11:59:23;97393.97;;;19.81;43.60
75146;BME280;63641;46.526;24.612;2023-05-08T12:01:50;97392.13;;;19.72;43.43
75146;BME280;63641;46.526;24.612;2023-05-08T12:04:21;97388.03;;;19.66;43.17
75146;BME280;63641;46.526;24.612;2023-05-08T12:06:48;97382.84;;;19.65;43.19
75146;BME280;63641;46.526;24.612;2023-05-08T12:09:17;97378.97;;;19.66;43.13
75146;BME280;63641;46.526;24.612;2023-05-08T12:11:44;97388.13;;;19.70;43.04
75146;BME280;63641;46.526;24.612;2023-05-08T12:14:12;97384.69;;;19.73;42.42
75146;BME280;63641;46.526;24.612;2023-05-08T12:16:40;97385.38;;;19.70;42.54
75146;BME280;63641;46.526;24.612;2023-05-08T12:19:12;97380.13;;;19.65;42.76
75146;BME280;63641;46.526;24.612;2023-05-08T12:21:45;97382.97;;;19.68;42.79
75146;BME280;63641;46.526;24.612;2023-05-08T12:24:15;97387.94;;;19.75;42.72
75146;BME280;63641;46.526;24.612;2023-05-08T12:26:48;97393.19;;;19.80;43.09
75146;BME280;63641;46.526;24.612;2023-05-08T12:29:19;97384.94;;;19.80;43.03
75146;BME280;63641;46.526;24.612;2023-05-08T12:31:47;97381.03;;;19.69;42.88
75146;BME280;63641;46.526;24.612;2023-05-08T12:34:14;97397.31;;;19.74;43.25
75146;BME280;63641;46.526;24.612;2023-05-08T12:36:42;97399.94;;;19.83;42.53
75146;BME280;63641;46.526;24.612;2023-05-08T12:39:13;97396.84;;;19.84;42.85
75146;BME280;63641;46.526;24.612;2023-05-08T12:41:47;97407.41;;;19.82;42.71
75146;BME280;63641;46.526;24.612;2023-05-08T12:44:24;97405.31;;;19.79;42.69
75146;BME280;63641;46.526;24.612;2023-05-08T12:46:56;97417.44;;;19.78;43.34
75146;BME280;63641;46.526;24.612;2023-05-08T12:49:28;97416.06;;;19.84;43.65
75146;BME280;63641;46.526;24.612;2023-05-08T12:52:00;97417.00;;;19.88;43.54
75146;BME280;63641;46.526;24.612;2023-05-08T12:54:31;97410.84;;;19.91;42.93
75146;BME280;63641;46.526;24.612;2023-05-08T12:56:58;97418.75;;;19.93;42.56
75146;BME280;63641;46.526;24.612;2023-05-08T12:59:31;97426.50;;;19.91;42.20
75146;BME280;63641;46.526;24.612;2023-05-08T13:01:58;97422.69;;;19.71;42.05
75146;BME280;63641;46.526;24.612;2023-05-08T13:04:25;97432.63;;;19.63;42.13
75146;BME280;63641;46.526;24.612;2023-05-08T13:06:54;97433.44;;;19.55;42.44
75146;BME280;63641;46.526;24.612;2023-05-08T13:09:21;97429.50;;;19.44;42.23
75146;BME280;63641;46.526;24.612;2023-05-08T13:11:56;97440.16;;;19.45;42.74
75146;BME280;63641;46.526;24.612;2023-05-08T13:14:23;97427.78;;;19.39;42.31
75146;BME280;63641;46.526;24.612;2023-05-08T13:16:49;97436.41;;;19.29;42.25
75146;BME280;63641;46.526;24.612;2023-05-08T13:19:17;97436.88;;;19.10;42.24
75146;BME280;63641;46.526;24.612;2023-05-08T13:21:44;97437.84;;;18.93;42.47
75146;BME280;63641;46.526;24.612;2023-05-08T13:24:13;97447.59;;;18.82;42.61
75146;BME280;63641;46.526;24.612;2023-05-08T13:26:40;97467.88;;;18.81;42.74
75146;BME280;63641;46.526;24.612;2023-05-08T13:29:07;97472.63;;;18.72;43.82
75146;BME280;63641;46.526;24.612;2023-05-08T13:31:34;97474.94;;;18.52;45.75
75146;BME280;63641;46.526;24.612;2023-05-08T13:34:01;97492.09;;;18.32;46.74
75146;BME280;63641;46.526;24.612;2023-05-08T13:36:28;97484.94;;;18.01;47.85
75146;BME280;63641;46.526;24.612;2023-05-08T13:38:55;97484.16;;;17.83;48.32
75146;BME280;63641;46.526;24.612;2023-05-08T13:41:23;97483.50;;;17.52;48.91
75146;BME280;63641;46.526;24.612;2023-05-08T13:43:49;97496.25;;;17.39;49.38
75146;BME280;63641;46.526;24.612;2023-05-08T13:46:16;97505.56;;;17.29;49.64